Time;durP1;ratioP1;P1;durP2;ratioP2;P2;SDS_P1;SDS_P2;PMS_P1;PMS_P2;Temp;Humidity;BMP_temperature;BMP_pressure;BME280_temperature;BME280_humidity;BME280_pressure;Samples;Min_cycle;Max_cycle;Signal;HPM_P1;HPM_P2
2022/05/29 00:01:45;;;;;;;7.53;2.83;;;10.50;99.90;;;;;;5111218;28;20048;-60
2022/05/29 00:04:10;;;;;;;11.60;3.08;;;10.50;99.90;;;;;;5093407;28;20047;-59
2022/05/29 00:06:43;;;;;;;7.90;2.55;;;10.50;99.90;;;;;;5111327;28;20066;-60
2022/05/29 00:09:13;;;;;;;13.13;3.47;;;10.50;99.90;;;;;;5111668;28;20055;-60
2022/05/29 00:11:39;;;;;;;10.30;3.25;;;10.50;99.90;;;;;;5093033;28;20366;-62
2022/05/29 00:14:05;;;;;;;14.75;3.55;;;10.50;99.90;;;;;;5111495;28;20074;-61
2022/05/29 00:16:31;;;;;;;13.35;3.25;;;10.60;99.90;;;;;;5092997;28;20043;-60
2022/05/29 00:18:56;;;;;;;12.60;3.08;;;10.60;99.90;;;;;;5111464;28;20388;-60
2022/05/29 00:21:23;;;;;;;11.48;2.80;;;10.60;99.90;;;;;;5095836;28;20116;-60
2022/05/29 00:23:49;;;;;;;16.20;3.60;;;10.60;99.90;;;;;;5115107;28;20046;-61
2022/05/29 00:26:19;;;;;;;13.13;3.53;;;10.50;99.90;;;;;;5096816;28;20134;-60
2022/05/29 00:28:45;;;;;;;16.00;4.35;;;10.60;99.90;;;;;;5114702;28;20047;-60
2022/05/29 00:31:12;;;;;;;13.27;3.03;;;10.50;99.90;;;;;;5096716;28;20044;-60
2022/05/29 00:33:39;;;;;;;13.40;3.70;;;10.40;99.90;;;;;;5114735;28;20185;-59
2022/05/29 00:36:06;;;;;;;12.40;3.53;;;10.40;99.90;;;;;;5096968;28;20114;-60
2022/05/29 00:38:38;;;;;;;15.07;3.65;;;10.40;99.90;;;;;;5114488;28;20047;-61
2022/05/29 00:41:24;;;;;;;9.55;3.30;;;10.40;99.90;;;;;;5114854;28;20058;-60
2022/05/29 00:44:12;;;;;;;16.02;3.72;;;10.40;99.90;;;;;;5114081;28;20480;-61
2022/05/29 00:46:46;;;;;;;14.95;3.22;;;10.50;99.90;;;;;;5096391;28;20083;-59
2022/05/29 00:49:13;;;;;;;10.37;3.87;;;10.50;99.90;;;;;;5096508;28;20048;-60
2022/05/29 00:51:45;;;;;;;14.93;3.60;;;10.50;99.90;;;;;;5114261;28;20101;-60
2022/05/29 00:54:11;;;;;;;13.43;3.75;;;10.50;99.90;;;;;;5096507;28;20047;-61
2022/05/29 00:56:38;;;;;;;10.88;3.42;;;10.50;99.90;;;;;;5114340;28;20086;-58
2022/05/29 00:59:09;;;;;;;8.52;3.10;;;10.60;99.90;;;;;;5114501;28;20044;-60
2022/05/29 01:01:35;;;;;;;10.10;3.45;;;10.60;99.90;;;;;;5114489;28;20043;-60
2022/05/29 01:04:01;;;;;;;9.70;3.40;;;10.60;99.90;;;;;;5079100;28;20394;-60
2022/05/29 01:06:28;;;;;;;13.73;3.55;;;10.70;99.90;;;;;;5096272;28;20043;-59
2022/05/29 01:08:56;;;;;;;12.52;3.50;;;10.60;99.90;;;;;;5114005;28;20047;-61
2022/05/29 01:11:28;;;;;;;13.43;3.50;;;10.60;99.90;;;;;;5114237;28;20043;-61
2022/05/29 01:14:18;;;;;;;7.78;2.92;;;10.60;99.90;;;;;;5095811;28;20044;-60
2022/05/29 01:17:14;;;;;;;11.98;3.10;;;10.60;99.90;;;;;;5095973;28;20186;-60
2022/05/29 01:19:54;;;;;;;9.48;3.28;;;10.60;99.90;;;;;;5113683;28;20455;-61
2022/05/29 01:22:45;;;;;;;11.77;2.83;;;10.50;99.90;;;;;;5096003;28;20388;-61
2022/05/29 01:25:48;;;;;;;8.95;3.50;;;10.50;99.90;;;;;;5095974;28;20061;-59
2022/05/29 01:28:55;;;;;;;10.73;3.20;;;10.50;99.90;;;;;;5113683;28;20457;-59
2022/05/29 01:31:50;;;;;;;6.93;2.90;;;10.50;99.90;;;;;;5095704;28;20082;-60
2022/05/29 01:34:21;;;;;;;8.38;3.03;;;10.50;99.90;;;;;;5095594;28;20051;-60
2022/05/29 01:37:14;;;;;;;13.32;3.72;;;10.50;99.90;;;;;;5113596;28;20050;-58
2022/05/29 01:39:49;;;;;;;13.15;3.75;;;10.50;99.90;;;;;;5095532;28;20083;-60
2022/05/29 01:42:36;;;;;;;14.20;3.60;;;10.50;99.90;;;;;;5095606;28;20054;-61
2022/05/29 01:45:53;;;;;;;9.82;3.10;;;10.50;99.90;;;;;;5095701;28;20039;-60
2022/05/29 01:48:28;;;;;;;10.82;3.30;;;10.60;99.90;;;;;;5095508;28;20044;-59
2022/05/29 01:50:58;;;;;;;10.38;3.40;;;10.60;99.90;;;;;;5113553;28;20058;-60
2022/05/29 01:53:30;;;;;;;15.25;3.72;;;10.60;99.90;;;;;;5113389;28;20045;-59
2022/05/29 01:56:00;;;;;;;14.05;3.55;;;10.60;99.90;;;;;;5113192;28;20051;-60
2022/05/29 01:58:37;;;;;;;9.75;3.10;;;10.70;99.90;;;;;;5113688;28;20117;-60
2022/05/29 02:01:05;;;;;;;14.68;3.22;;;10.60;99.90;;;;;;5113031;28;20044;-59
2022/05/29 02:03:39;;;;;;;14.18;3.22;;;10.60;99.90;;;;;;5113120;28;20093;-59
2022/05/29 02:06:13;;;;;;;11.55;3.10;;;10.60;99.90;;;;;;5113096;28;20134;-59
2022/05/29 02:08:52;;;;;;;8.60;2.72;;;10.70;99.90;;;;;;5113101;28;20047;-58
2022/05/29 02:11:25;;;;;;;15.13;3.33;;;10.70;99.90;;;;;;5094678;28;20519;-59
2022/05/29 02:14:12;;;;;;;13.30;3.13;;;10.80;99.90;;;;;;5112658;28;20039;-60
2022/05/29 02:16:46;;;;;;;11.52;2.92;;;10.70;99.90;;;;;;5112866;28;20043;-60
2022/05/29 02:19:19;;;;;;;9.73;2.88;;;10.70;99.90;;;;;;5094497;28;20054;-60
2022/05/29 02:21:51;;;;;;;10.75;3.13;;;10.70;99.90;;;;;;5112860;28;20495;-59
2022/05/29 02:24:20;;;;;;;11.45;2.85;;;10.70;99.90;;;;;;5094844;28;20369;-60
2022/05/29 02:27:15;;;;;;;9.20;2.92;;;10.70;99.90;;;;;;5112755;28;20128;-60
2022/05/29 02:29:42;;;;;;;11.65;2.55;;;10.70;99.90;;;;;;5112542;28;20494;-60
2022/05/29 02:32:34;;;;;;;8.98;3.53;;;10.70;99.90;;;;;;5112507;28;20035;-60
2022/05/29 02:35:25;;;;;;;11.75;2.95;;;10.70;99.90;;;;;;5112348;28;20127;-59
2022/05/29 02:38:28;;;;;;;11.45;2.95;;;10.70;99.90;;;;;;5112350;28;20051;-59
2022/05/29 02:40:54;;;;;;;12.68;3.60;;;10.70;99.90;;;;;;5111431;28;20055;-60
2022/05/29 02:43:42;;;;;;;8.38;3.05;;;10.70;99.90;;;;;;5112409;28;20040;-62
2022/05/29 02:46:32;;;;;;;7.07;2.90;;;10.60;99.90;;;;;;5111729;28;20508;-60
2022/05/29 02:49:13;;;;;;;9.07;2.90;;;10.60;99.90;;;;;;5111845;28;20480;-61
2022/05/29 02:51:47;;;;;;;14.52;2.90;;;10.60;99.90;;;;;;5094359;28;20043;-60
2022/05/29 02:54:25;;;;;;;10.93;2.92;;;10.60;99.90;;;;;;5094806;28;20401;-60
2022/05/29 02:56:55;;;;;;;10.43;3.13;;;10.60;99.90;;;;;;5112356;28;20039;-61
2022/05/29 02:59:24;;;;;;;10.18;2.92;;;10.50;99.90;;;;;;5112379;28;20047;-60
2022/05/29 03:02:11;;;;;;;15.23;3.53;;;10.50;99.90;;;;;;5093968;28;20058;-61
2022/05/29 03:04:39;;;;;;;11.15;2.97;;;10.50;99.90;;;;;;5111973;28;20526;-60
2022/05/29 03:07:33;;;;;;;9.20;2.63;;;10.50;99.90;;;;;;5112052;28;20060;-60
2022/05/29 03:10:16;;;;;;;8.05;2.95;;;10.50;99.90;;;;;;5111811;28;20047;-60
2022/05/29 03:13:09;;;;;;;12.35;3.03;;;10.50;99.90;;;;;;5094272;28;20090;-60
2022/05/29 03:15:46;;;;;;;11.27;3.08;;;10.50;99.90;;;;;;5112017;28;20055;-59
2022/05/29 03:18:18;;;;;;;14.65;3.25;;;10.50;99.90;;;;;;5111683;28;20039;-59
2022/05/29 03:20:50;;;;;;;13.45;2.78;;;10.40;99.90;;;;;;5093855;28;20369;-59
2022/05/29 03:23:51;;;;;;;7.53;2.10;;;10.40;99.90;;;;;;5111462;28;20044;-59
2022/05/29 03:26:37;;;;;;;15.32;3.15;;;10.40;99.90;;;;;;5093436;28;20617;-60
2022/05/29 03:29:14;;;;;;;7.03;2.30;;;10.40;99.90;;;;;;5077302;28;20036;-62
2022/05/29 03:31:41;;;;;;;8.63;2.38;;;10.50;99.90;;;;;;5112064;28;20132;-60
2022/05/29 03:34:08;;;;;;;7.72;2.13;;;10.50;99.90;;;;;;5093255;28;20051;-60
2022/05/29 03:36:34;;;;;;;9.90;2.47;;;10.50;99.90;;;;;;5111797;28;20055;-60
2022/05/29 03:39:00;;;;;;;10.93;2.42;;;10.50;99.90;;;;;;5111590;28;20131;-62
2022/05/29 03:41:39;;;;;;;8.38;2.20;;;10.50;99.90;;;;;;5111760;28;20130;-60
2022/05/29 03:44:05;;;;;;;8.60;2.10;;;10.50;99.90;;;;;;5093199;28;20092;-60
2022/05/29 03:46:31;;;;;;;11.07;2.72;;;10.50;99.90;;;;;;5111516;28;20070;-60
2022/05/29 03:48:57;;;;;;;10.02;2.55;;;10.50;99.90;;;;;;5111615;28;20074;-59
2022/05/29 03:51:23;;;;;;;9.05;2.60;;;10.50;99.90;;;;;;5111141;28;20475;-59
2022/05/29 03:53:48;;;;;;;10.88;3.08;;;10.50;99.90;;;;;;5076675;28;20040;-59
2022/05/29 03:56:14;;;;;;;11.75;2.60;;;10.50;99.90;;;;;;5113736;28;20043;-61
2022/05/29 03:58:40;;;;;;;12.05;2.75;;;10.50;99.90;;;;;;5097461;28;20040;-60
2022/05/29 04:01:06;;;;;;;11.68;2.92;;;10.50;99.90;;;;;;5114951;28;20047;-60
2022/05/29 04:03:34;;;;;;;12.50;3.03;;;10.50;99.90;;;;;;5080419;28;20044;-60
2022/05/29 04:06:00;;;;;;;13.73;2.90;;;10.50;99.90;;;;;;5114989;28;20056;-61
2022/05/29 04:13:55;;;;;;;7.18;2.28;;;10.60;99.90;;;;;;5097512;28;20400;-60
2022/05/29 04:16:20;;;;;;;17.58;3.35;;;10.60;99.90;;;;;;5114969;28;20074;-60
2022/05/29 04:18:46;;;;;;;8.40;2.78;;;10.60;99.90;;;;;;5114885;28;20043;-59
2022/05/29 04:21:12;;;;;;;15.80;3.20;;;10.60;99.90;;;;;;5096721;28;20130;-60
2022/05/29 04:23:38;;;;;;;9.40;2.58;;;10.50;99.90;;;;;;5115332;28;20043;-60
2022/05/29 04:26:04;;;;;;;14.93;2.90;;;10.60;99.90;;;;;;5097140;28;20044;-60
2022/05/29 04:28:29;;;;;;;16.73;3.63;;;10.60;99.90;;;;;;5115144;28;20051;-60
2022/05/29 04:30:55;;;;;;;14.93;3.30;;;10.60;99.90;;;;;;5096693;28;20087;-60
2022/05/29 04:33:22;;;;;;;16.02;3.90;;;10.60;99.90;;;;;;5114738;28;20040;-60
2022/05/29 04:35:52;;;;;;;10.88;2.97;;;10.60;99.90;;;;;;5114936;28;20054;-61
2022/05/29 04:38:19;;;;;;;10.60;2.63;;;10.60;99.90;;;;;;5114681;28;20065;-60
2022/05/29 04:40:45;;;;;;;13.02;3.40;;;10.50;99.90;;;;;;5114799;28;20066;-60
2022/05/29 04:43:12;;;;;;;15.77;2.92;;;10.50;99.90;;;;;;5079531;28;20047;-60
2022/05/29 04:45:40;;;;;;;16.65;3.38;;;10.50;99.90;;;;;;5114868;28;20059;-59
2022/05/29 04:48:06;;;;;;;16.52;3.42;;;10.40;99.90;;;;;;5114756;28;20101;-60
2022/05/29 04:50:32;;;;;;;10.20;3.03;;;10.40;99.90;;;;;;5114270;28;20054;-59
2022/05/29 04:52:58;;;;;;;16.17;3.58;;;10.50;99.90;;;;;;5114618;28;20035;-61
2022/05/29 04:55:24;;;;;;;8.25;2.40;;;10.40;99.90;;;;;;5096203;28;20065;-59
2022/05/29 04:57:50;;;;;;;14.13;3.30;;;10.50;99.90;;;;;;5114245;28;20040;-59
2022/05/29 05:00:16;;;;;;;8.30;2.70;;;10.50;99.90;;;;;;5114375;28;20135;-59
2022/05/29 05:02:42;;;;;;;16.85;3.42;;;10.50;99.90;;;;;;5114594;28;20078;-60
2022/05/29 05:05:08;;;;;;;15.43;2.95;;;10.50;99.90;;;;;;5114160;28;20059;-59
2022/05/29 05:07:35;;;;;;;11.35;2.70;;;10.50;99.90;;;;;;5094357;28;20492;-59
2022/05/29 05:10:02;;;;;;;11.30;3.00;;;10.60;99.90;;;;;;5114277;28;20450;-60
2022/05/29 05:12:28;;;;;;;16.42;3.17;;;10.60;99.90;;;;;;5113948;28;20048;-59
2022/05/29 05:14:54;;;;;;;12.95;3.42;;;10.60;99.90;;;;;;5113921;28;20068;-60
2022/05/29 05:17:19;;;;;;;11.57;2.60;;;10.60;99.90;;;;;;5113766;28;20040;-60
2022/05/29 05:19:45;;;;;;;13.10;3.72;;;10.60;99.90;;;;;;5113808;28;20052;-59
2022/05/29 05:22:11;;;;;;;14.10;3.05;;;10.70;99.90;;;;;;5114273;28;20044;-59
2022/05/29 05:24:38;;;;;;;19.02;3.72;;;10.60;99.90;;;;;;5113604;28;20176;-60
2022/05/29 05:27:08;;;;;;;23.17;3.88;;;10.60;99.90;;;;;;5113884;28;20044;-60
2022/05/29 05:29:34;;;;;;;18.65;4.13;;;10.60;99.90;;;;;;5113545;28;20122;-61
2022/05/29 05:32:01;;;;;;;16.20;4.47;;;10.60;99.90;;;;;;5113539;28;20177;-61
2022/05/29 05:34:29;;;;;;;15.13;3.67;;;10.50;99.90;;;;;;5113317;28;20070;-60
2022/05/29 05:36:55;;;;;;;13.48;3.38;;;10.50;99.90;;;;;;5113826;28;20047;-60
2022/05/29 05:39:21;;;;;;;14.32;2.97;;;10.50;99.90;;;;;;5113185;28;20043;-60
2022/05/29 05:41:48;;;;;;;17.08;3.50;;;10.50;99.90;;;;;;5095315;28;20485;-60
2022/05/29 05:44:14;;;;;;;14.65;3.35;;;10.40;99.90;;;;;;5113046;28;20492;-60
2022/05/29 05:46:48;;;;;;;17.77;3.40;;;10.40;99.90;;;;;;5095007;28;20075;-59
2022/05/29 05:49:17;;;;;;;;;;;10.40;99.90;;;;;;5113839;28;20431;-60
2022/05/29 05:51:43;;;;;;;16.55;3.80;;;10.50;99.90;;;;;;5112967;28;19965;-59
2022/05/29 05:54:09;;;;;;;13.32;2.63;;;10.50;99.90;;;;;;5113411;28;20476;-60
2022/05/29 05:56:34;;;;;;;11.68;3.03;;;10.60;99.90;;;;;;5112799;28;20178;-59
2022/05/29 05:59:00;;;;;;;11.90;3.03;;;10.60;99.90;;;;;;5095148;28;20130;-59
2022/05/29 06:01:26;;;;;;;17.30;3.00;;;10.70;99.90;;;;;;5112651;28;20176;-60
2022/05/29 06:03:51;;;;;;;12.65;2.88;;;10.80;99.90;;;;;;5113181;28;20148;-61
2022/05/29 06:06:17;;;;;;;8.55;2.65;;;10.80;99.90;;;;;;5113146;28;20138;-59
2022/05/29 06:08:43;;;;;;;12.23;2.70;;;10.90;99.90;;;;;;5094514;28;20474;-60
2022/05/29 06:11:09;;;;;;;11.57;2.92;;;10.90;99.90;;;;;;5113106;28;20088;-60
2022/05/29 06:13:35;;;;;;;8.20;2.65;;;10.90;99.90;;;;;;5112785;28;20135;-60
2022/05/29 06:16:02;;;;;;;10.25;2.30;;;10.90;99.90;;;;;;5112884;28;20079;-62
2022/05/29 06:18:28;;;;;;;11.98;2.45;;;11.00;99.90;;;;;;5112296;28;20064;-60
2022/05/29 06:21:02;;;;;;;8.13;2.33;;;11.00;99.90;;;;;;5078032;28;20044;-60
2022/05/29 06:23:29;;;;;;;6.80;2.28;;;11.00;99.90;;;;;;5112594;28;20040;-60
2022/05/29 06:25:54;;;;;;;9.98;2.90;;;11.00;99.90;;;;;;5112979;28;20078;-61
2022/05/29 06:28:20;;;;;;;9.02;2.15;;;11.10;99.90;;;;;;5112590;28;20173;-60
2022/05/29 06:30:46;;;;;;;7.35;2.25;;;11.10;99.90;;;;;;5094012;28;20626;-60
2022/05/29 06:33:12;;;;;;;6.90;2.03;;;11.20;99.90;;;;;;5094747;28;20093;-60
2022/05/29 06:35:38;;;;;;;7.82;1.92;;;11.20;99.90;;;;;;5112370;28;20043;-59
2022/05/29 06:38:04;;;;;;;5.72;1.85;;;11.10;99.90;;;;;;5094569;28;20044;-59
2022/05/29 06:40:30;;;;;;;10.65;2.42;;;11.00;99.90;;;;;;5094036;28;20136;-60
2022/05/29 06:42:56;;;;;;;10.30;2.42;;;11.00;99.90;;;;;;5112199;28;20484;-61
2022/05/29 06:45:21;;;;;;;9.07;2.38;;;11.10;99.90;;;;;;5094001;28;20063;-59
2022/05/29 06:47:48;;;;;;;8.48;2.10;;;11.00;99.90;;;;;;5112183;28;20039;-61
2022/05/29 06:50:14;;;;;;;8.25;2.08;;;11.00;99.90;;;;;;5112477;28;20477;-60
2022/05/29 06:52:40;;;;;;;7.75;1.98;;;11.00;99.90;;;;;;5111978;28;20035;-60
2022/05/29 06:55:06;;;;;;;8.57;2.05;;;11.00;99.90;;;;;;5112423;28;20131;-59
2022/05/29 06:57:44;;;;;;;10.40;2.70;;;11.00;99.90;;;;;;5111912;28;20051;-59
2022/05/29 07:08:30;;;;;;;12.95;2.72;;;11.00;99.90;;;;;;5111996;28;20052;-60
2022/05/29 07:11:01;;;;;;;13.25;3.28;;;10.90;99.90;;;;;;5093657;28;20136;-60
2022/05/29 07:13:28;;;;;;;9.65;2.40;;;10.80;99.90;;;;;;5112210;28;20035;-59
2022/05/29 07:15:54;;;;;;;12.05;2.70;;;10.80;99.90;;;;;;5111666;28;20245;-59
2022/05/29 07:18:19;;;;;;;9.38;2.60;;;10.80;99.90;;;;;;5111890;28;20055;-60
2022/05/29 07:20:45;;;;;;;11.48;2.55;;;10.80;99.90;;;;;;5093500;28;20136;-60
2022/05/29 07:23:11;;;;;;;10.95;2.65;;;10.70;99.90;;;;;;5111906;28;20050;-60
2022/05/29 07:25:37;;;;;;;7.32;2.17;;;10.60;99.90;;;;;;5111654;28;20048;-59
2022/05/29 07:28:05;;;;;;;6.90;2.00;;;10.70;99.90;;;;;;5111971;28;20040;-61
2022/05/29 07:30:30;;;;;;;8.00;2.20;;;10.70;99.90;;;;;;5111184;28;20403;-59
2022/05/29 07:33:00;;;;;;;8.85;2.45;;;10.70;99.90;;;;;;5111441;28;20044;-60
2022/05/29 07:35:26;;;;;;;7.72;1.70;;;10.80;99.90;;;;;;5111772;28;20047;-59
2022/05/29 07:37:52;;;;;;;7.20;1.92;;;10.80;99.90;;;;;;5093446;28;20051;-59
2022/05/29 07:40:18;;;;;;;8.43;1.88;;;10.90;99.90;;;;;;5111724;28;20396;-60
2022/05/29 07:45:27;;;;;;;6.30;1.60;;;11.10;99.90;;;;;;5111702;28;20113;-60
2022/05/29 07:47:55;;;;;;;7.93;1.80;;;11.10;99.90;;;;;;5093255;28;20453;-59
2022/05/29 07:50:22;;;;;;;5.50;1.30;;;11.20;99.90;;;;;;5093716;28;20039;-59
2022/05/29 07:52:50;;;;;;;6.40;1.40;;;11.30;99.90;;;;;;5111324;28;20044;-60
2022/05/29 07:55:17;;;;;;;6.45;1.52;;;11.30;99.90;;;;;;5093550;28;20046;-59
2022/05/29 07:57:43;;;;;;;7.03;2.20;;;11.30;99.90;;;;;;5111234;28;20475;-60
2022/05/29 08:00:12;;;;;;;5.38;1.70;;;11.20;99.90;;;;;;5111566;28;20160;-60
2022/05/29 08:02:38;;;;;;;6.28;1.67;;;11.20;99.90;;;;;;5111084;28;20546;-60
2022/05/29 08:05:06;;;;;;;6.32;1.75;;;11.10;99.90;;;;;;5111104;28;20056;-59
2022/05/29 08:07:32;;;;;;;7.13;1.80;;;11.10;99.90;;;;;;5111380;28;20051;-60
2022/05/29 08:09:58;;;;;;;6.38;1.77;;;11.10;99.90;;;;;;5111057;28;20043;-60
2022/05/29 08:12:24;;;;;;;10.45;1.98;;;11.10;99.90;;;;;;5111533;28;20062;-60
2022/05/29 08:14:50;;;;;;;6.82;1.67;;;11.20;99.90;;;;;;5111263;28;20047;-60
2022/05/29 08:17:16;;;;;;;10.27;1.90;;;11.20;99.90;;;;;;5093219;28;20043;-60
2022/05/29 08:19:42;;;;;;;9.45;2.45;;;11.20;99.90;;;;;;5111357;28;20066;-60
2022/05/29 08:22:08;;;;;;;8.55;2.25;;;11.30;99.90;;;;;;5092939;28;20055;-61
2022/05/29 08:30:38;;;;;;;6.10;1.88;;;10.90;99.90;;;;;;5093164;28;20426;-59
2022/05/29 08:33:20;;;;;;;8.43;2.33;;;10.80;99.90;;;;;;5111092;28;20039;-62
2022/05/29 08:35:48;;;;;;;10.10;2.17;;;10.90;99.90;;;;;;5076211;28;20059;-63
2022/05/29 08:38:15;;;;;;;8.63;1.75;;;10.90;99.90;;;;;;5093009;28;20100;-59
2022/05/29 08:40:44;;;;;;;7.00;1.90;;;11.00;99.90;;;;;;5111076;28;20150;-59
2022/05/29 08:43:17;;;;;;;10.65;2.25;;;11.10;99.90;;;;;;5114257;28;20131;-60
2022/05/29 08:45:46;;;;;;;9.77;2.10;;;11.10;99.90;;;;;;5114864;28;20054;-60
2022/05/29 08:48:12;;;;;;;7.82;2.10;;;11.20;99.90;;;;;;5114523;28;20127;-60
2022/05/29 08:50:47;;;;;;;6.88;1.77;;;11.20;99.90;;;;;;5114589;28;20155;-60
2022/05/29 08:53:33;;;;;;;6.90;1.70;;;11.20;99.90;;;;;;5114732;28;20105;-60
2022/05/29 08:56:15;;;;;;;5.35;1.67;;;11.30;99.90;;;;;;5114380;28;20040;-59
2022/05/29 08:58:59;;;;;;;8.07;1.60;;;11.30;99.90;;;;;;5096255;28;20051;-60
2022/05/29 09:01:40;;;;;;;7.47;1.52;;;11.30;99.90;;;;;;5114585;28;20043;-60
2022/05/29 09:04:14;;;;;;;7.55;1.60;;;11.30;99.90;;;;;;5114188;28;20171;-59
2022/05/29 09:06:49;;;;;;;6.00;1.55;;;11.40;99.90;;;;;;5114617;28;20043;-60
2022/05/29 09:09:27;;;;;;;6.63;1.35;;;11.40;99.90;;;;;;5114559;28;20081;-60
2022/05/29 09:12:03;;;;;;;8.70;2.10;;;11.50;99.90;;;;;;5114051;28;20093;-61
2022/05/29 09:14:54;;;;;;;8.95;2.15;;;11.60;99.90;;;;;;5114354;28;20130;-60
2022/05/29 09:17:41;;;;;;;11.57;2.17;;;11.50;99.90;;;;;;5114092;28;20051;-60
2022/05/29 09:20:29;;;;;;;12.15;2.05;;;11.50;99.90;;;;;;5113951;28;20059;-60
2022/05/29 09:23:00;;;;;;;6.75;1.65;;;11.40;99.90;;;;;;5095771;28;20104;-60
2022/05/29 09:25:30;;;;;;;8.70;1.70;;;11.40;99.90;;;;;;5096026;28;20062;-60
2022/05/29 09:28:05;;;;;;;6.10;1.73;;;11.50;99.90;;;;;;5095588;28;20419;-60
2022/05/29 09:30:32;;;;;;;7.88;2.25;;;11.50;99.90;;;;;;5113692;28;20496;-60
2022/05/29 09:33:01;;;;;;;4.55;1.58;;;11.60;99.90;;;;;;5095436;28;20485;-60
2022/05/29 09:35:50;;;;;;;6.28;1.80;;;11.60;99.90;;;;;;5095590;28;20503;-59
2022/05/29 09:38:31;;;;;;;13.27;2.38;;;11.70;99.90;;;;;;5095555;28;20051;-61
2022/05/29 09:41:19;;;;;;;11.68;2.03;;;11.80;99.90;;;;;;5113632;28;20051;-61
2022/05/29 09:44:16;;;;;;;6.45;1.70;;;11.90;99.90;;;;;;5078602;28;20093;-59
2022/05/29 09:46:47;;;;;;;5.78;1.60;;;12.00;99.90;;;;;;5113801;28;20101;-59
2022/05/29 09:49:41;;;;;;;7.57;1.75;;;12.10;99.90;;;;;;5113647;28;20055;-60
2022/05/29 09:52:13;;;;;;;4.30;1.50;;;12.20;99.90;;;;;;5113156;28;20565;-60
2022/05/29 09:54:44;;;;;;;7.30;1.70;;;12.40;99.90;;;;;;5112928;28;20345;-59
2022/05/29 09:57:12;;;;;;;6.43;1.42;;;12.50;99.90;;;;;;5095312;28;20051;-59
2022/05/29 09:59:42;;;;;;;9.50;1.95;;;12.50;99.90;;;;;;5113403;28;20047;-60
2022/05/29 10:02:20;;;;;;;8.10;2.60;;;12.50;99.90;;;;;;5113216;28;20123;-61
2022/05/29 10:04:51;;;;;;;7.68;1.98;;;12.50;99.90;;;;;;5113240;28;20054;-59
2022/05/29 10:07:41;;;;;;;6.53;1.77;;;12.50;99.90;;;;;;5113090;28;20051;-60
2022/05/29 10:10:24;;;;;;;7.22;1.92;;;12.40;99.90;;;;;;5112833;28;20054;-60
2022/05/29 10:12:54;;;;;;;7.35;2.05;;;12.30;99.90;;;;;;5113185;28;20086;-60
2022/05/29 10:15:26;;;;;;;8.32;2.15;;;12.20;99.90;;;;;;5094499;28;20043;-60
2022/05/29 10:18:00;;;;;;;8.30;2.08;;;12.10;99.90;;;;;;5113070;28;20054;-60
2022/05/29 10:20:26;;;;;;;;;;;12.00;99.90;;;;;;5113466;28;20044;-60
2022/05/29 10:22:54;;;;;;;7.30;1.90;;;12.00;99.90;;;;;;5094742;28;20029;-60
2022/05/29 10:25:24;;;;;;;12.50;2.30;;;12.00;99.90;;;;;;5094592;28;20048;-59
2022/05/29 10:27:53;;;;;;;10.68;2.20;;;12.00;99.90;;;;;;5112979;28;20050;-60
2022/05/29 10:31:00;;;;;;;7.22;1.77;;;12.00;99.90;;;;;;5112540;28;20078;-59
2022/05/29 10:33:31;;;;;;;5.43;1.77;;;12.10;99.90;;;;;;5062747;28;20108;-60
2022/05/29 10:36:13;;;;;;;7.57;2.20;;;12.30;99.90;;;;;;5112685;28;20047;-60
2022/05/29 10:38:40;;;;;;;7.60;1.98;;;12.40;99.90;;;;;;5112800;28;20043;-60
2022/05/29 10:41:07;;;;;;;10.98;1.90;;;12.50;99.90;;;;;;5112412;28;20047;-60
2022/05/29 10:43:51;;;;;;;9.40;1.92;;;12.40;99.90;;;;;;5112570;28;20123;-60
2022/05/29 10:46:24;;;;;;;9.82;2.15;;;12.40;99.90;;;;;;5094101;28;20425;-60
2022/05/29 10:49:24;;;;;;;10.00;2.13;;;12.20;99.90;;;;;;5094204;28;20062;-60
2022/05/29 10:52:17;;;;;;;9.55;1.63;;;12.10;99.90;;;;;;5112381;28;20054;-60
2022/05/29 10:54:42;;;;;;;9.27;2.05;;;12.10;99.90;;;;;;5112094;28;20456;-60
2022/05/29 10:57:24;;;;;;;10.60;1.98;;;12.10;99.90;;;;;;5112036;28;20138;-60
2022/05/29 11:00:13;;;;;;;7.95;1.98;;;12.10;99.90;;;;;;5112165;28;20043;-59
2022/05/29 11:05:45;;;;;;;5.75;1.60;;;12.20;99.90;;;;;;5111000;28;20060;-60
2022/05/29 11:08:36;;;;;;;6.40;1.67;;;12.30;99.90;;;;;;5093799;28;20134;-60
2022/05/29 11:11:26;;;;;;;4.88;1.80;;;12.40;99.90;;;;;;5112188;28;20377;-61
2022/05/29 11:14:22;;;;;;;12.52;2.00;;;12.40;99.90;;;;;;5093909;28;20438;-59
2022/05/29 11:17:22;;;;;;;6.45;2.20;;;12.60;99.90;;;;;;5094002;28;20384;-61
2022/05/29 11:19:54;;;;;;;9.60;1.95;;;12.70;99.90;;;;;;5112185;28;20083;-60
2022/05/29 11:22:50;;;;;;;9.82;1.80;;;12.80;99.90;;;;;;5111396;28;20143;-61
2022/05/29 11:25:54;;;;;;;10.52;2.25;;;12.80;99.90;;;;;;5093697;28;20051;-61
2022/05/29 11:28:46;;;;;;;10.30;2.42;;;12.80;99.90;;;;;;5008695;28;20507;-61
2022/05/29 11:31:30;;;;;;;5.53;1.75;;;12.90;99.90;;;;;;5107932;28;20105;-61
2022/05/29 11:34:26;;;;;;;8.48;1.88;;;13.00;99.90;;;;;;5111924;28;20087;-59
2022/05/29 11:37:04;;;;;;;12.57;2.30;;;13.10;99.90;;;;;;5093654;28;20422;-59
2022/05/29 11:39:52;;;;;;;7.88;2.40;;;13.20;99.90;;;;;;5111344;28;20043;-59
2022/05/29 11:42:31;;;;;;;10.63;2.53;;;13.30;99.90;;;;;;5111510;28;20039;-59
2022/05/29 11:45:05;;;;;;;8.70;2.25;;;13.20;99.90;;;;;;5111724;28;20128;-61
2022/05/29 11:53:39;;;;;;;10.38;2.22;;;12.90;99.90;;;;;;5093415;28;20410;-59
2022/05/29 11:56:10;;;;;;;15.38;2.70;;;12.80;99.90;;;;;;5111658;28;20047;-60
2022/05/29 11:58:47;;;;;;;8.07;2.08;;;12.60;99.90;;;;;;5093368;28;20039;-60
2022/05/29 12:01:26;;;;;;;10.63;2.13;;;12.40;99.90;;;;;;5111662;28;20446;-60
2022/05/29 12:03:59;;;;;;;8.32;2.38;;;12.20;99.90;;;;;;5093486;28;20039;-61
2022/05/29 12:06:37;;;;;;;7.95;2.00;;;12.10;99.90;;;;;;5076194;28;20060;-61
2022/05/29 12:09:15;;;;;;;7.13;1.83;;;12.10;99.90;;;;;;5111554;28;20214;-60
2022/05/29 12:11:58;;;;;;;9.15;2.38;;;12.00;99.90;;;;;;5093243;28;20039;-60
2022/05/29 12:14:44;;;;;;;13.88;2.28;;;12.00;99.90;;;;;;5111136;28;20035;-59
2022/05/29 12:17:23;;;;;;;8.45;2.13;;;12.00;99.90;;;;;;5113871;28;20086;-60
2022/05/29 12:20:12;;;;;;;6.50;2.00;;;12.20;99.90;;;;;;5115533;28;20047;-60
2022/05/29 12:22:47;;;;;;;6.32;2.10;;;12.00;99.90;;;;;;5114806;28;20185;-60
2022/05/29 12:25:39;;;;;;;6.65;1.95;;;12.00;99.90;;;;;;5096975;28;20040;-59
2022/05/29 12:28:09;;;;;;;9.45;2.08;;;12.00;99.90;;;;;;5115161;28;20048;-60
2022/05/29 12:30:48;;;;;;;7.00;2.00;;;11.90;99.90;;;;;;5114823;28;20568;-59
2022/05/29 12:33:20;;;;;;;8.40;1.98;;;12.00;99.90;;;;;;5096840;28;20039;-59
2022/05/29 12:36:05;;;;;;;8.77;2.20;;;12.10;99.90;;;;;;5114887;28;20055;-60
2022/05/29 12:39:27;;;;;;;8.25;1.80;;;12.30;99.90;;;;;;5114686;28;20092;-60
2022/05/29 12:41:59;;;;;;;11.05;1.98;;;12.40;99.90;;;;;;5075361;28;20124;-60
2022/05/29 12:44:46;;;;;;;9.15;2.10;;;12.60;99.90;;;;;;5114528;28;20043;-61
2022/05/29 12:47:38;;;;;;;11.25;2.70;;;12.70;99.90;;;;;;5096505;28;20055;-59
2022/05/29 12:50:03;;;;;;;7.25;1.80;;;12.70;99.90;;;;;;5114038;28;20129;-60
2022/05/29 12:52:29;;;;;;;8.88;2.55;;;12.80;99.90;;;;;;5096023;28;20138;-59
2022/05/29 12:54:57;;;;;;;9.07;1.88;;;12.80;99.90;;;;;;5096189;28;20069;-59
2022/05/29 12:57:39;;;;;;;9.27;2.40;;;12.80;99.90;;;;;;5114319;28;20036;-62
2022/05/29 13:00:10;;;;;;;11.95;2.10;;;12.70;99.90;;;;;;5114507;28;20044;-59
2022/05/29 13:02:45;;;;;;;10.93;2.50;;;12.80;99.90;;;;;;5095893;28;20074;-60
2022/05/29 13:05:50;;;;;;;8.52;2.50;;;12.80;99.90;;;;;;5113705;28;20492;-60
2022/05/29 13:08:25;;;;;;;7.72;2.47;;;12.90;99.90;;;;;;5096222;28;20388;-60
2022/05/29 13:10:55;;;;;;;9.75;2.20;;;13.00;99.90;;;;;;5114907;28;20373;-59
2022/05/29 13:13:30;;;;;;;6.15;2.00;;;13.20;99.90;;;;;;5114246;28;20036;-60
2022/05/29 13:16:29;;;;;;;10.68;2.17;;;13.30;99.90;;;;;;5079256;28;20051;-60
2022/05/29 13:19:21;;;;;;;11.18;2.30;;;13.30;99.90;;;;;;5114140;28;20055;-60
2022/05/29 13:21:56;;;;;;;9.88;1.67;;;13.50;99.90;;;;;;5095560;28;20527;-60
2022/05/29 13:24:26;;;;;;;14.13;2.67;;;13.50;99.90;;;;;;5113934;28;20048;-60
2022/05/29 13:27:28;;;;;;;7.13;1.75;;;13.50;99.90;;;;;;5113952;28;20373;-60
2022/05/29 13:29:57;;;;;;;6.93;1.90;;;13.40;99.90;;;;;;4994185;28;20052;-60
2022/05/29 13:32:32;;;;;;;7.15;1.90;;;13.50;99.90;;;;;;5078193;28;20052;-60
2022/05/29 13:35:04;;;;;;;8.70;2.03;;;13.50;99.90;;;;;;5113808;28;20047;-60
2022/05/29 13:37:32;;;;;;;11.02;2.38;;;13.50;99.90;;;;;;5095506;28;20047;-59
2022/05/29 13:40:00;;;;;;;10.32;2.72;;;13.50;99.90;;;;;;5078846;28;20054;-60
2022/05/29 13:42:31;;;;;;;8.63;2.28;;;13.50;99.90;;;;;;5113514;28;20369;-60
2022/05/29 13:44:57;;;;;;;9.30;2.40;;;13.60;99.90;;;;;;5113684;28;20075;-60
2022/05/29 13:47:23;;;;;;;8.98;2.20;;;13.60;99.90;;;;;;5113627;28;20484;-59
2022/05/29 13:50:11;;;;;;;13.35;2.08;;;13.70;99.90;;;;;;5113233;28;20067;-59